Time;durP1;ratioP1;P1;durP2;ratioP2;P2;SDS_P1;SDS_P2;PMS_P1;PMS_P2;Temp;Humidity;BMP_temperature;BMP_pressure;BME280_temperature;BME280_humidity;BME280_pressure;Samples;Min_cycle;Max_cycle;Signal;HPM_P1;HPM_P2
2021/12/12 00:01:37;;;;;;;13.38;3.92;;;;;;;4.18;100.00;101337.84;4985591;28;20357;-71
2021/12/12 00:04:14;;;;;;;16.38;5.10;;;;;;;4.24;100.00;101338.59;4979616;28;20503;-71
2021/12/12 00:06:50;;;;;;;13.60;2.92;;;;;;;4.21;100.00;101331.16;4983954;28;20570;-71
2021/12/12 00:09:26;;;;;;;10.07;3.10;;;;;;;4.18;100.00;101345.09;4974766;28;20069;-71
2021/12/12 00:11:52;;;;;;;10.23;3.25;;;;;;;4.22;100.00;101348.75;4978141;28;20402;-71
2021/12/12 00:14:25;;;;;;;7.95;2.75;;;;;;;4.14;100.00;101344.84;4973233;28;20503;-71
2021/12/12 00:16:54;;;;;;;16.95;4.18;;;;;;;4.20;100.00;101354.34;4972203;28;20042;-71
2021/12/12 00:19:21;;;;;;;8.73;3.03;;;;;;;4.18;100.00;101353.09;4987505;28;20033;-71
2021/12/12 00:21:51;;;;;;;18.77;4.18;;;;;;;4.20;100.00;101353.56;4975531;28;20438;-71
2021/12/12 00:24:18;;;;;;;14.60;4.00;;;;;;;4.18;100.00;101353.09;4988719;28;20030;-71
2021/12/12 00:26:47;;;;;;;17.70;4.55;;;;;;;4.22;100.00;101356.75;4983649;28;20394;-71
2021/12/12 00:29:15;;;;;;;12.02;4.30;;;;;;;4.19;100.00;101352.78;4984346;28;20691;-71
2021/12/12 00:31:42;;;;;;;11.05;3.83;;;;;;;4.19;100.00;101342.13;4985666;28;20557;-71
2021/12/12 00:34:08;;;;;;;12.63;5.28;;;;;;;4.18;100.00;101335.19;4983971;28;20066;-71
2021/12/12 00:36:34;;;;;;;8.27;3.58;;;;;;;4.20;100.00;101350.91;4982605;28;20525;-71
2021/12/12 00:39:20;;;;;;;9.00;2.85;;;;;;;4.21;100.00;101347.94;4988385;28;20042;-71
2021/12/12 00:41:53;;;;;;;15.15;3.65;;;;;;;4.20;100.00;101349.00;4981185;28;20459;-71
2021/12/12 00:44:18;;;;;;;9.07;3.28;;;;;;;4.14;100.00;101342.19;4981157;28;20034;-71
2021/12/12 00:46:45;;;;;;;21.65;4.65;;;;;;;4.21;100.00;101344.47;4975731;28;20031;-70
2021/12/12 00:49:13;;;;;;;12.80;3.70;;;;;;;4.34;100.00;101341.81;4987505;28;20035;-70
2021/12/12 00:51:42;;;;;;;8.23;3.47;;;;;;;4.37;100.00;101338.59;4980486;23;20053;-70
2021/12/12 00:54:10;;;;;;;8.27;3.03;;;;;;;4.36;100.00;101334.31;4976657;28;20494;-71
2021/12/12 00:56:36;;;;;;;14.10;3.33;;;;;;;4.29;100.00;101338.47;4980327;28;20037;-70
2021/12/12 00:59:03;;;;;;;9.43;2.58;;;;;;;4.29;100.00;101336.59;4981831;28;20645;-71
2021/12/12 01:01:35;;;;;;;11.18;3.55;;;;;;;4.26;100.00;101336.38;4980062;28;20042;-70
2021/12/12 01:04:12;;;;;;;14.13;3.05;;;;;;;4.31;100.00;101330.97;4968266;28;20031;-71
2021/12/12 01:06:37;;;;;;;7.65;3.22;;;;;;;4.24;100.00;101338.59;4964345;28;20055;-71
2021/12/12 01:09:09;;;;;;;9.70;3.72;;;;;;;4.25;100.00;101348.94;4958070;28;20456;-70
2021/12/12 01:11:39;;;;;;;12.95;2.65;;;;;;;4.26;100.00;101350.50;4967558;28;20044;-71
2021/12/12 01:14:10;;;;;;;18.88;4.18;;;;;;;4.33;100.00;101339.47;4962289;28;20514;-71
2021/12/12 01:16:45;;;;;;;13.88;4.38;;;;;;;4.29;100.00;101341.94;4971142;28;20446;-71
2021/12/12 01:19:28;;;;;;;10.50;3.17;;;;;;;4.34;100.00;101352.50;4964739;28;20395;-70
2021/12/12 01:22:01;;;;;;;9.40;3.70;;;;;;;4.37;100.00;101354.59;4968022;28;20484;-71
2021/12/12 01:24:34;;;;;;;14.45;3.42;;;;;;;4.31;100.00;101350.44;4952150;28;20035;-71
2021/12/12 01:27:02;;;;;;;9.43;3.60;;;;;;;4.31;100.00;101352.28;4968402;28;20034;-70
2021/12/12 01:29:27;;;;;;;10.57;4.15;;;;;;;4.23;100.00;101343.13;4967017;28;20030;-71
2021/12/12 01:31:56;;;;;;;11.48;3.15;;;;;;;4.22;100.00;101352.19;4970736;28;20038;-71
2021/12/12 01:34:26;;;;;;;8.63;2.83;;;;;;;4.26;100.00;101347.84;4969720;28;20114;-70
2021/12/12 01:39:30;;;;;;;10.77;3.08;;;;;;;4.28;100.00;101360.88;4965324;28;20049;-70
2021/12/12 01:42:02;;;;;;;12.00;3.50;;;;;;;4.23;100.00;101366.31;4969023;28;20042;-71
2021/12/12 01:44:49;;;;;;;7.93;3.03;;;;;;;4.32;100.00;101360.00;4964308;28;20071;-70
2021/12/12 01:47:19;;;;;;;8.88;3.65;;;;;;;4.26;100.00;101363.84;4957411;28;20046;-70
2021/12/12 01:49:48;;;;;;;9.85;3.60;;;;;;;4.29;100.00;101370.47;4974520;28;20442;-70
2021/12/12 01:52:18;;;;;;;8.00;2.78;;;;;;;4.31;100.00;101353.09;4972938;28;20032;-70
2021/12/12 01:54:48;;;;;;;10.88;3.47;;;;;;;4.26;100.00;101350.50;4966382;28;20173;-70
2021/12/12 01:57:25;;;;;;;11.80;4.40;;;;;;;4.41;100.00;101365.44;4974089;28;20042;-70
2021/12/12 01:59:52;;;;;;;7.03;2.83;;;;;;;4.30;100.00;101356.03;4974600;28;20037;-70
2021/12/12 02:02:27;;;;;;;12.13;3.25;;;;;;;4.26;100.00;101358.50;4965750;28;20042;-70
2021/12/12 02:05:00;;;;;;;8.07;3.45;;;;;;;4.31;100.00;101368.28;4964492;28;20058;-70
2021/12/12 02:07:32;;;;;;;8.38;3.38;;;;;;;4.24;100.00;101354.56;4971091;28;20031;-70
2021/12/12 02:10:00;;;;;;;8.05;2.60;;;;;;;4.28;100.00;101352.88;4965817;28;20046;-70
2021/12/12 02:12:27;;;;;;;10.95;3.20;;;;;;;4.25;100.00;101366.78;4972501;28;20034;-71
2021/12/12 02:14:56;;;;;;;10.27;2.83;;;;;;;4.24;100.00;101374.00;4972482;28;20047;-70
2021/12/12 02:17:36;;;;;;;9.68;2.97;;;;;;;4.23;100.00;101368.97;4968433;28;20061;-70
2021/12/12 02:21:04;;;;;;;9.80;3.00;;;;;;;4.30;100.00;101372.03;4961158;28;20043;-71
2021/12/12 02:36:30;;;;;;;10.50;4.22;;;;;;;4.36;100.00;101362.84;4964884;28;20027;-71
2021/12/12 02:38:56;;;;;;;13.68;4.90;;;;;;;4.32;100.00;101353.88;4956510;28;20065;-71
2021/12/12 02:41:24;;;;;;;14.95;4.07;;;;;;;4.28;100.00;101352.88;4968511;28;20031;-71
2021/12/12 02:43:57;;;;;;;10.98;3.60;;;;;;;4.19;100.00;101357.31;4969894;28;20039;-71
2021/12/12 02:46:28;;;;;;;3.97;2.28;;;;;;;4.23;100.00;101360.97;4966599;28;20041;-70
2021/12/12 02:49:05;;;;;;;19.00;3.33;;;;;;;4.31;100.00;101360.28;4973709;28;20074;-71
2021/12/12 02:51:31;;;;;;;8.45;3.53;;;;;;;4.37;100.00;101361.78;4969674;28;20473;-71
2021/12/12 02:53:58;;;;;;;15.60;3.35;;;;;;;4.25;100.00;101372.94;4963338;28;20487;-71
2021/12/12 02:56:34;;;;;;;7.75;3.40;;;;;;;4.20;100.00;101364.25;4972950;28;20033;-71
2021/12/12 02:59:06;;;;;;;11.98;3.40;;;;;;;4.23;100.00;101363.63;4968352;28;20062;-71
2021/12/12 03:02:04;;;;;;;7.68;2.47;;;;;;;4.26;100.00;101358.50;4966083;28;20123;-71
2021/12/12 03:04:30;;;;;;;6.50;2.10;;;;;;;4.23;100.00;101363.63;4953495;29;20619;-70
2021/12/12 03:06:57;;;;;;;10.32;3.30;;;;;;;4.27;100.00;101361.97;4969131;28;20044;-71
2021/12/12 03:09:30;;;;;;;11.88;3.30;;;;;;;4.36;100.00;101360.97;4972219;28;20031;-70
2021/12/12 03:12:04;;;;;;;6.90;2.55;;;;;;;4.52;100.00;101356.16;4972986;28;20458;-70
2021/12/12 03:14:32;;;;;;;5.95;2.83;;;;;;;4.48;100.00;101355.16;4972827;28;20035;-71
2021/12/12 03:17:01;;;;;;;9.27;3.92;;;;;;;4.49;100.00;101357.53;4961416;28;20773;-70
2021/12/12 03:19:27;;;;;;;17.20;3.72;;;;;;;4.48;100.00;101360.50;4965455;28;20136;-71
2021/12/12 03:21:54;;;;;;;7.15;2.72;;;;;;;4.43;100.00;101352.59;4958575;28;20034;-70
2021/12/12 03:24:22;;;;;;;12.38;3.28;;;;;;;4.60;100.00;101368.78;4958956;28;20113;-71
2021/12/12 03:26:54;;;;;;;10.07;3.33;;;;;;;4.64;100.00;101361.00;4970600;28;20380;-70
2021/12/12 03:29:19;;;;;;;5.45;2.90;;;;;;;4.48;100.00;101347.97;4958286;28;20042;-70
2021/12/12 03:31:57;;;;;;;11.05;3.55;;;;;;;4.48;100.00;101358.63;4957530;28;20488;-70
2021/12/12 03:34:24;;;;;;;7.70;3.13;;;;;;;4.42;100.00;101354.47;4971854;28;20039;-70
2021/12/12 03:36:51;;;;;;;13.38;4.32;;;;;;;4.41;100.00;101355.53;4972252;28;20428;-70
2021/12/12 03:39:21;;;;;;;17.90;4.03;;;;;;;4.46;100.00;101360.00;4969646;28;20592;-70
2021/12/12 03:41:48;;;;;;;11.75;3.28;;;;;;;4.43;100.00;101358.72;4964539;28;20411;-71
2021/12/12 03:44:19;;;;;;;15.80;4.57;;;;;;;4.55;100.00;101360.88;4969013;28;20419;-70
2021/12/12 03:46:53;;;;;;;9.82;2.67;;;;;;;4.58;100.00;101365.63;4961410;28;20113;-71
2021/12/12 03:49:19;;;;;;;13.45;4.10;;;;;;;4.59;100.00;101356.53;4971558;28;20047;-70
2021/12/12 03:51:47;;;;;;;8.23;3.67;;;;;;;4.52;100.00;101366.81;4969510;28;20523;-71
2021/12/12 03:54:15;;;;;;;9.02;3.60;;;;;;;4.44;100.00;101356.84;4967496;28;20046;-70
2021/12/12 03:56:42;;;;;;;7.13;3.08;;;;;;;4.49;100.00;101352.19;4971068;28;20353;-71
2021/12/12 03:59:11;;;;;;;10.25;3.30;;;;;;;4.64;100.00;101353.78;4966145;28;20062;-73
2021/12/12 04:01:41;;;;;;;7.47;3.22;;;;;;;4.68;100.00;101353.97;4965102;28;20046;-71
2021/12/12 04:04:11;;;;;;;8.90;3.17;;;;;;;4.80;100.00;101351.59;4960492;28;20073;-71
2021/12/12 04:06:37;;;;;;;9.18;3.60;;;;;;;4.69;100.00;101364.34;4967053;28;20118;-72
2021/12/12 04:09:05;;;;;;;9.25;3.58;;;;;;;4.54;100.00;101362.78;4963326;28;20827;-71
2021/12/12 04:11:41;;;;;;;9.85;3.58;;;;;;;4.57;100.00;101364.03;4964601;28;20030;-71
2021/12/12 04:14:08;;;;;;;10.80;3.08;;;;;;;4.65;100.00;101358.00;4971246;28;20126;-71
2021/12/12 04:16:37;;;;;;;10.63;3.47;;;;;;;4.65;100.00;101355.34;4966635;28;20439;-71
2021/12/12 04:19:06;;;;;;;6.47;3.47;;;;;;;4.60;100.00;101360.78;4961400;28;20100;-72
2021/12/12 04:21:33;;;;;;;11.43;4.07;;;;;;;4.69;100.00;101364.34;4965323;28;20042;-71
2021/12/12 04:23:59;;;;;;;5.60;3.05;;;;;;;4.68;100.00;101360.09;4966845;28;20486;-72
2021/12/12 04:26:33;;;;;;;18.45;4.35;;;;;;;4.79;100.00;101366.81;4970719;28;20030;-71
2021/12/12 04:29:08;;;;;;;11.95;3.00;;;;;;;4.83;100.00;101365.13;4967798;28;20145;-72
2021/12/12 04:31:37;;;;;;;11.27;3.70;;;;;;;4.65;100.00;101368.69;4970860;28;20027;-72
2021/12/12 04:34:04;;;;;;;9.45;4.15;;;;;;;4.67;100.00;101373.72;4964082;28;20046;-72
2021/12/12 04:36:33;;;;;;;11.20;4.50;;;;;;;4.60;100.00;101379.47;4965377;28;20049;-72
2021/12/12 04:39:04;;;;;;;10.85;2.35;;;;;;;4.67;100.00;101379.84;4968918;28;20934;-72
2021/12/12 04:41:30;;;;;;;10.85;3.92;;;;;;;4.66;100.00;101378.28;4961762;28;20045;-71
2021/12/12 04:43:55;;;;;;;11.88;3.13;;;;;;;4.73;100.00;101380.53;4970117;28;20134;-72
2021/12/12 04:46:25;;;;;;;13.93;3.53;;;;;;;4.72;100.00;101371.75;4960561;28;20062;-72
2021/12/12 04:51:47;;;;;;;9.02;3.90;;;;;;;4.79;100.00;101372.13;4967250;28;20039;-71
2021/12/12 04:54:36;;;;;;;9.05;4.13;;;;;;;4.74;100.00;101371.47;4967989;28;20057;-72
2021/12/12 04:57:15;;;;;;;9.68;2.88;;;;;;;4.91;100.00;101366.28;4970504;28;20518;-72
2021/12/12 04:59:51;;;;;;;12.23;3.88;;;;;;;4.78;100.00;101370.53;4970189;28;20057;-72
2021/12/12 05:02:23;;;;;;;17.42;4.15;;;;;;;4.79;100.00;101377.47;4970882;28;20038;-72
2021/12/12 05:05:02;;;;;;;14.20;3.58;;;;;;;4.80;100.00;101370.28;4970405;28;20039;-72
2021/12/12 05:07:41;;;;;;;8.80;4.05;;;;;;;4.78;100.00;101357.22;4965872;28;21056;-72
2021/12/12 05:10:12;;;;;;;10.25;4.22;;;;;;;4.84;100.00;101355.25;4960999;28;20506;-71
2021/12/12 05:12:51;;;;;;;12.05;3.40;;;;;;;4.84;100.00;101348.00;4958630;28;20038;-71
2021/12/12 05:15:37;;;;;;;17.13;3.60;;;;;;;4.85;100.00;101352.28;4974099;28;20054;-72
2021/12/12 05:18:12;;;;;;;12.25;4.07;;;;;;;5.02;100.00;101349.78;4969856;28;20043;-72
2021/12/12 05:20:43;;;;;;;8.32;3.17;;;;;;;4.99;100.00;101339.72;4968971;28;20038;-72
2021/12/12 05:23:15;;;;;;;5.63;3.23;;;;;;;5.04;100.00;101342.25;4968507;28;20058;-71
2021/12/12 05:25:56;;;;;;;18.25;4.28;;;;;;;4.89;100.00;101331.91;4965669;28;20306;-71
2021/12/12 05:28:29;;;;;;;11.32;3.95;;;;;;;4.83;100.00;101333.09;4960417;28;20042;-71
2021/12/12 05:30:56;;;;;;;8.38;3.55;;;;;;;4.92;100.00;101336.63;4964764;28;20499;-72
2021/12/12 05:33:22;;;;;;;13.70;3.92;;;;;;;5.02;100.00;101332.97;4954546;28;20383;-71
2021/12/12 05:35:48;;;;;;;8.82;2.78;;;;;;;5.13;100.00;101332.44;4968840;28;20030;-71
2021/12/12 05:38:15;;;;;;;10.55;4.35;;;;;;;5.17;100.00;101337.94;4969036;28;20046;-71
2021/12/12 05:40:44;;;;;;;17.70;4.15;;;;;;;5.00;100.00;101330.59;4974366;28;20081;-71
2021/12/12 05:43:12;;;;;;;14.50;4.38;;;;;;;5.05;100.00;101327.81;4973856;28;20483;-71
2021/12/12 05:45:38;;;;;;;17.35;3.85;;;;;;;5.02;100.00;101327.63;4974336;28;20034;-71
2021/12/12 05:48:06;;;;;;;11.25;4.85;;;;;;;5.02;100.00;101328.41;4967804;28;20130;-71
2021/12/12 05:50:33;;;;;;;19.30;3.72;;;;;;;5.15;100.00;101330.25;4972819;28;20380;-72
2021/12/12 05:52:59;;;;;;;9.80;3.88;;;;;;;4.94;100.00;101321.13;4968198;28;20496;-71
2021/12/12 05:55:28;;;;;;;16.23;4.93;;;;;;;5.08;100.00;101327.22;4965942;28;20065;-71
2021/12/12 05:57:59;;;;;;;12.68;4.82;;;;;;;5.08;100.00;101334.44;4964864;28;20047;-71
2021/12/12 06:00:38;;;;;;;14.25;3.83;;;;;;;4.99;100.00;101337.03;4963706;28;20039;-71
2021/12/12 06:03:12;;;;;;;12.38;4.60;;;;;;;4.93;100.00;101337.44;4962355;28;20070;-71
2021/12/12 06:05:38;;;;;;;14.82;4.30;;;;;;;5.15;100.00;101342.84;4955783;28;20031;-71
2021/12/12 06:08:06;;;;;;;13.90;4.13;;;;;;;5.13;100.00;101340.44;4965299;28;20054;-71
2021/12/12 06:10:34;;;;;;;11.57;4.75;;;;;;;5.10;100.00;101341.06;4970149;28;20411;-72
2021/12/12 06:13:01;;;;;;;13.80;3.75;;;;;;;5.01;100.00;101340.19;4971177;28;20043;-71
2021/12/12 06:15:30;;;;;;;17.63;5.43;;;;;;;5.07;100.00;101341.63;4974364;28;20061;-71
2021/12/12 06:17:57;;;;;;;12.00;3.22;;;;;;;5.05;100.00;101349.16;4974083;28;20416;-71
2021/12/12 06:20:23;;;;;;;11.77;3.97;;;;;;;5.02;100.00;101343.63;4965205;28;20038;-72
2021/12/12 06:22:49;;;;;;;11.27;3.45;;;;;;;5.02;100.00;101354.31;4972355;28;20049;-71
2021/12/12 06:25:16;;;;;;;8.88;3.63;;;;;;;5.02;100.00;101349.78;4964017;28;20485;-71
2021/12/12 06:27:42;;;;;;;16.08;3.67;;;;;;;5.05;100.00;101351.06;4969090;28;20420;-71
2021/12/12 06:30:12;;;;;;;16.13;5.40;;;;;;;5.15;100.00;101343.59;4968852;28;20089;-70
2021/12/12 06:32:38;;;;;;;15.43;4.13;;;;;;;5.22;100.00;101346.66;4969473;28;20034;-71
2021/12/12 06:35:06;;;;;;;16.02;4.47;;;;;;;5.23;100.00;101334.09;4968198;28;20090;-70
2021/12/12 06:37:32;;;;;;;13.40;4.10;;;;;;;5.24;100.00;101328.47;4965284;28;20039;-71
2021/12/12 06:39:59;;;;;;;14.80;5.05;;;;;;;5.22;100.00;101324.50;4954463;28;20043;-71
2021/12/12 06:42:28;;;;;;;15.45;4.47;;;;;;;5.22;100.00;101330.66;4961630;28;20039;-71
2021/12/12 06:44:54;;;;;;;17.10;4.50;;;;;;;5.25;100.00;101327.34;4968404;28;20041;-71
2021/12/12 06:47:20;;;;;;;11.52;4.68;;;;;;;5.30;100.00;101335.25;4965456;28;20411;-71
2021/12/12 06:49:46;;;;;;;15.05;4.35;;;;;;;5.24;100.00;101331.13;4973350;28;20035;-71
2021/12/12 06:52:14;;;;;;;16.35;5.60;;;;;;;5.15;100.00;101330.25;4968628;28;20522;-71
2021/12/12 06:54:40;;;;;;;8.13;4.18;;;;;;;5.25;100.00;101327.34;4962948;28;20066;-71
2021/12/12 06:57:11;;;;;;;12.95;4.57;;;;;;;5.28;100.00;101321.41;4960936;28;20077;-71
2021/12/12 06:59:40;;;;;;;8.88;3.58;;;;;;;5.18;100.00;101321.66;4973312;28;20046;-71
2021/12/12 07:02:07;;;;;;;15.60;4.00;;;;;;;5.14;100.00;101326.03;4967973;28;20569;-71
2021/12/12 07:04:37;;;;;;;15.50;3.83;;;;;;;5.16;100.00;101318.50;4967035;28;20121;-71
2021/12/12 07:07:08;;;;;;;15.48;4.93;;;;;;;5.13;100.00;101313.75;4973306;28;20502;-71
2021/12/12 07:09:35;;;;;;;9.02;3.72;;;;;;;5.13;100.00;101312.97;4965330;28;20388;-71
2021/12/12 07:12:06;;;;;;;9.27;3.72;;;;;;;5.23;100.00;101320.72;4964720;28;20034;-71
2021/12/12 07:14:33;;;;;;;6.82;3.65;;;;;;;5.25;100.00;101313.22;4972887;28;20035;-71
2021/12/12 07:16:59;;;;;;;7.22;3.28;;;;;;;5.31;100.00;101317.34;4970490;28;20043;-71
2021/12/12 07:19:26;;;;;;;10.13;4.05;;;;;;;5.18;100.00;101302.97;4962667;28;20053;-71
2021/12/12 07:21:51;;;;;;;11.35;3.75;;;;;;;5.34;100.00;101303.41;4972670;28;20487;-71
2021/12/12 07:24:19;;;;;;;12.43;3.72;;;;;;;5.25;100.00;101310.53;4972410;28;20085;-71
2021/12/12 07:26:50;;;;;;;10.75;3.70;;;;;;;5.25;100.00;101300.66;4959122;28;20034;-71
2021/12/12 07:29:16;;;;;;;10.02;4.28;;;;;;;5.25;100.00;101299.88;4956019;28;20039;-71
2021/12/12 07:31:42;;;;;;;8.88;3.38;;;;;;;5.36;100.00;101291.31;4958709;28;20137;-71
2021/12/12 07:34:11;;;;;;;12.73;3.30;;;;;;;5.33;100.00;101285.78;4968616;28;20687;-71
2021/12/12 07:36:43;;;;;;;10.52;4.65;;;;;;;5.48;100.00;101288.88;4970349;28;20054;-71
2021/12/12 07:39:12;;;;;;;11.75;4.50;;;;;;;5.33;100.00;101285.78;4965084;28;20043;-71
2021/12/12 07:41:39;;;;;;;14.15;3.00;;;;;;;5.40;100.00;101286.19;4967415;28;20035;-72
2021/12/12 07:44:10;;;;;;;7.07;3.50;;;;;;;5.39;100.00;101288.06;4970422;28;20050;-72
2021/12/12 07:46:37;;;;;;;12.40;3.33;;;;;;;5.33;100.00;101289.25;4967188;28;20070;-72
2021/12/12 07:49:05;;;;;;;11.88;4.47;;;;;;;5.21;100.00;101286.34;4969636;28;20045;-71
2021/12/12 07:51:33;;;;;;;12.57;3.90;;;;;;;5.37;100.00;101292.91;4970583;28;20038;-71
2021/12/12 07:54:03;;;;;;;14.88;4.30;;;;;;;5.31;100.00;101282.63;4970268;28;20034;-71
2021/12/12 07:56:32;;;;;;;7.97;3.63;;;;;;;5.31;100.00;101278.09;4966926;28;20039;-72
2021/12/12 07:58:59;;;;;;;9.45;2.70;;;;;;;5.47;100.00;101275.84;4964590;28;20047;-71
2021/12/12 08:01:26;;;;;;;11.35;4.57;;;;;;;5.41;100.00;101283.19;4968452;28;20388;-71
2021/12/12 08:03:54;;;;;;;7.38;2.95;;;;;;;5.43;100.00;101277.53;4968239;28;20050;-71
2021/12/12 08:06:20;;;;;;;15.75;4.55;;;;;;;5.37;100.00;101273.41;4970903;28;20045;-71
2021/12/12 08:08:47;;;;;;;7.05;3.17;;;;;;;5.28;100.00;101277.91;4971223;28;20042;-71
2021/12/12 08:11:18;;;;;;;8.35;3.00;;;;;;;5.28;100.00;101281.34;4970217;28;20515;-71
2021/12/12 08:13:44;;;;;;;8.63;3.70;;;;;;;5.30;100.00;101287.19;4964258;28;20050;-72
2021/12/12 08:16:14;;;;;;;10.85;4.10;;;;;;;5.33;100.00;101275.13;4971200;28;20034;-70
2021/12/12 08:18:40;;;;;;;10.60;4.27;;;;;;;5.27;100.00;101276.31;4972155;28;20043;-72
2021/12/12 08:21:06;;;;;;;9.48;3.70;;;;;;;5.27;100.00;101274.44;4968725;28;20097;-72
2021/12/12 08:23:33;;;;;;;14.38;4.57;;;;;;;5.31;100.00;101280.75;4962834;28;20491;-71
2021/12/12 08:26:00;;;;;;;12.93;3.53;;;;;;;5.47;100.00;101275.84;4952485;28;20536;-71
2021/12/12 08:28:28;;;;;;;5.82;2.88;;;;;;;5.38;100.00;101283.03;4967129;28;20484;-71
2021/12/12 08:30:53;;;;;;;12.48;3.78;;;;;;;5.36;100.00;101275.28;4971157;28;20043;-71
2021/12/12 08:33:19;;;;;;;14.07;2.63;;;;;;;5.36;100.00;101261.19;4961253;28;20102;-71
2021/12/12 08:35:46;;;;;;;8.63;2.63;;;;;;;5.39;100.00;101265.91;4959650;28;20407;-71
2021/12/12 08:38:13;;;;;;;9.95;4.05;;;;;;;5.40;100.00;101257.56;4972013;28;20042;-70
2021/12/12 08:40:46;;;;;;;15.20;3.25;;;;;;;5.28;100.00;101245.88;4969213;28;20048;-71
2021/12/12 08:43:13;;;;;;;10.85;3.10;;;;;;;5.45;100.00;101246.78;4970305;28;20038;-71
2021/12/12 08:45:55;;;;;;;6.90;2.97;;;;;;;5.49;100.00;101239.72;4967065;28;20034;-71
2021/12/12 08:48:24;;;;;;;12.70;2.92;;;;;;;5.31;100.00;101237.25;4959170;28;20086;-72
2021/12/12 08:50:54;;;;;;;5.60;2.33;;;;;;;5.27;100.00;101242.41;4958652;28;20035;-71
2021/12/12 08:53:20;;;;;;;12.15;3.25;;;;;;;5.42;100.00;101226.00;4963000;28;20042;-71
2021/12/12 08:55:50;;;;;;;9.85;2.92;;;;;;;5.30;100.00;101225.00;4967397;28;20030;-71
2021/12/12 08:58:23;;;;;;;11.75;3.35;;;;;;;5.39;100.00;101221.28;4964798;28;20062;-71
2021/12/12 09:01:14;;;;;;;5.10;2.35;;;;;;;5.38;100.00;101216.28;4965937;28;20034;-71
2021/12/12 09:03:53;;;;;;;2.85;1.88;;;;;;;5.45;100.00;101212.06;4967390;28;20117;-71
2021/12/12 09:06:25;;;;;;;7.65;2.17;;;;;;;5.41;100.00;101200.41;4967748;28;20483;-72
2021/12/12 09:08:58;;;;;;;6.20;3.28;;;;;;;5.41;100.00;101196.94;4968665;28;20495;-71
2021/12/12 09:11:38;;;;;;;4.65;2.50;;;;;;;5.22;100.00;101199.84;4963905;28;20042;-72
2021/12/12 09:14:13;;;;;;;6.07;2.53;;;;;;;5.24;100.00;101208.34;4966306;28;20035;-71
2021/12/12 09:16:46;;;;;;;4.93;2.22;;;;;;;5.33;100.00;101206.50;4961242;28;20038;-71
2021/12/12 09:19:17;;;;;;;4.20;2.22;;;;;;;5.22;100.00;101209.72;4967105;28;20043;-72
2021/12/12 09:21:51;;;;;;;9.65;2.65;;;;;;;5.24;100.00;101207.53;4971562;28;20127;-71
2021/12/12 09:24:31;;;;;;;6.15;2.78;;;;;;;5.30;100.00;101203.66;4961702;28;20051;-71
2021/12/12 09:27:08;;;;;;;6.28;2.53;;;;;;;5.34;100.00;101208.06;4959197;28;20117;-71
2021/12/12 09:29:43;;;;;;;8.32;2.47;;;;;;;5.44;100.00;101207.81;4958994;28;20039;-71
2021/12/12 09:32:24;;;;;;;5.18;2.67;;;;;;;5.50;100.00;101206.59;4965097;28;20043;-71
2021/12/12 09:34:59;;;;;;;9.82;2.53;;;;;;;5.44;100.00;101217.69;4969367;28;20058;-72
2021/12/12 09:37:54;;;;;;;4.10;1.83;;;;;;;5.32;100.00;101212.16;4963865;28;20105;-72
2021/12/12 09:41:04;;;;;;;4.18;2.20;;;;;;;5.42;100.00;101212.66;4965608;28;20499;-72
2021/12/12 09:44:01;;;;;;;5.70;2.38;;;;;;;5.32;100.00;101207.56;4924420;29;20043;-71
2021/12/12 09:47:00;;;;;;;6.65;2.65;;;;;;;5.45;100.00;101220.06;4966738;28;20081;-72
2021/12/12 09:52:30;;;;;;;3.13;1.90;;;;;;;5.52;100.00;101219.63;4962308;28;20569;-71
2021/12/12 09:55:02;;;;;;;8.38;2.75;;;;;;;5.37;100.00;101228.03;4956465;28;20104;-72
2021/12/12 09:57:43;;;;;;;8.30;2.60;;;;;;;5.51;100.00;101220.72;4961752;28;20039;-72
2021/12/12 10:00:08;;;;;;;5.93;2.80;;;;;;;5.47;100.00;101225.09;4962087;28;20621;-72
2021/12/12 10:02:58;;;;;;;6.68;2.70;;;;;;;5.53;100.00;101216.63;4966016;28;20026;-71
2021/12/12 10:05:45;;;;;;;6.80;2.45;;;;;;;5.50;100.00;101217.25;4962099;28;20023;-73
2021/12/12 10:08:38;;;;;;;4.53;2.38;;;;;;;5.61;100.00;101214.34;4961797;28;20101;-71
2021/12/12 10:11:08;;;;;;;4.65;2.13;;;;;;;5.71;100.00;101206.81;4961222;28;20029;-71
2021/12/12 10:13:43;;;;;;;3.70;2.15;;;;;;;5.69;100.00;101208.25;4963912;28;20066;-71
2021/12/12 10:16:31;;;;;;;6.75;2.78;;;;;;;5.70;100.00;101204.47;4969603;28;20046;-72
2021/12/12 10:19:26;;;;;;;3.10;1.95;;;;;;;5.63;100.00;101201.47;4966865;28;20066;-72
2021/12/12 10:22:09;;;;;;;2.67;1.30;;;;;;;5.74;100.00;101202.75;4961960;28;20046;-71
2021/12/12 10:24:49;;;;;;;4.35;1.95;;;;;;;5.91;100.00;101194.81;4967081;28;20037;-71
2021/12/12 10:27:30;;;;;;;2.83;1.65;;;;;;;5.73;100.00;101198.53;4969373;28;20031;-72
2021/12/12 10:30:25;;;;;;;5.90;1.77;;;;;;;5.76;100.00;101193.34;4966009;28;20115;-72
2021/12/12 10:33:02;;;;;;;4.90;2.00;;;;;;;5.82;100.00;101196.66;4972199;28;20030;-71
2021/12/12 10:35:39;;;;;;;3.92;1.70;;;;;;;5.81;100.00;101195.06;4965774;28;20089;-71
2021/12/12 10:38:19;;;;;;;4.10;1.58;;;;;;;5.78;100.00;101191.16;4969314;28;20035;-71
2021/12/12 10:41:07;;;;;;;3.53;1.67;;;;;;;5.81;100.00;101193.19;4970117;28;20042;-72
2021/12/12 10:43:42;;;;;;;2.08;1.45;;;;;;;5.76;100.00;101187.22;4960480;28;20508;-72
2021/12/12 10:46:18;;;;;;;3.35;1.80;;;;;;;5.85;100.00;101190.72;4958495;28;20045;-71
2021/12/12 10:49:00;;;;;;;3.15;1.63;;;;;;;5.97;100.00;101181.03;4970259;28;20035;-72
2021/12/12 10:51:30;;;;;;;3.90;2.00;;;;;;;5.91;100.00;101176.91;4965771;28;20027;-72
2021/12/12 10:54:05;;;;;;;4.00;1.80;;;;;;;6.04;100.00;101183.25;4961587;28;20488;-71
2021/12/12 10:56:39;;;;;;;2.10;1.45;;;;;;;5.96;100.00;101184.00;4963586;28;20045;-72
2021/12/12 10:59:45;;;;;;;4.22;1.67;;;;;;;6.01;100.00;101178.50;4963915;28;20403;-72
2021/12/12 11:02:16;;;;;;;2.25;1.38;;;;;;;6.11;100.00;101178.22;4966491;28;20050;-72
2021/12/12 11:05:05;;;;;;;4.50;1.75;;;;;;;6.11;100.00;101168.31;4960717;28;20121;-72
2021/12/12 11:07:37;;;;;;;2.17;1.10;;;;;;;6.00;100.00;101171.59;4961241;28;20042;-71
2021/12/12 11:10:11;;;;;;;1.98;1.40;;;;;;;6.01;100.00;101162.47;4957672;28;20042;-71
2021/12/12 11:12:55;;;;;;;3.78;1.75;;;;;;;5.99;100.00;101159.31;4969804;28;20175;-71
2021/12/12 11:15:33;;;;;;;1.15;0.98;;;;;;;6.06;100.00;101165.00;4966333;28;20042;-72
2021/12/12 11:18:02;;;;;;;1.35;1.05;;;;;;;6.08;100.00;101166.25;4969267;28;20046;-70
2021/12/12 11:20:40;;;;;;;2.17;0.98;;;;;;;6.00;100.00;101153.66;4961838;28;20551;-70
2021/12/12 11:23:25;;;;;;;4.65;1.30;;;;;;;6.12;100.00;101166.41;4970151;28;20038;-71
2021/12/12 11:25:58;;;;;;;0.82;0.82;;;;;;;6.07;100.00;101162.03;4966781;28;20027;-71
2021/12/12 11:28:43;;;;;;;1.23;1.02;;;;;;;6.05;100.00;101164.22;4958732;28;20035;-70
2021/12/12 11:31:15;;;;;;;1.60;1.17;;;;;;;6.02;100.00;101170.19;4965324;28;20556;-71
2021/12/12 11:33:47;;;;;;;2.10;1.15;;;;;;;6.13;100.00;101181.38;4968015;28;20038;-70
2021/12/12 11:36:21;;;;;;;1.30;1.20;;;;;;;6.23;100.00;101179.19;4964423;28;20038;-71
2021/12/12 11:38:46;;;;;;;2.40;1.23;;;;;;;6.20;100.00;101176.34;4970572;28;20050;-70
2021/12/12 11:41:19;;;;;;;2.47;1.10;;;;;;;6.23;100.00;101181.09;4966636;28;20669;-71
2021/12/12 11:44:15;;;;;;;1.70;1.35;;;;;;;6.16;100.00;101176.19;4961517;28;20049;-70
2021/12/12 11:47:05;;;;;;;1.23;0.88;;;;;;;6.23;100.00;101170.38;4964536;28;20162;-70
2021/12/12 11:50:01;;;;;;;2.33;1.20;;;;;;;6.19;100.00;101164.84;4971470;28;20035;-71
2021/12/12 11:52:50;;;;;;;0.93;0.73;;;;;;;6.30;100.00;101160.00;4970863;28;20042;-70
2021/12/12 11:55:24;;;;;;;1.20;0.80;;;;;;;6.24;100.00;101158.59;4966524;28;20041;-70
2021/12/12 11:57:55;;;;;;;1.05;0.70;;;;;;;6.25;100.00;101166.28;4969875;28;20066;-71
2021/12/12 12:00:28;;;;;;;;;;;;;;;6.20;100.00;101160.31;4966751;28;20192;-71
2021/12/12 12:03:27;;;;;;;0.73;0.73;;;;;;;6.23;100.00;101159.69;4966902;28;20362;-71
2021/12/12 12:05:58;;;;;;;1.13;0.63;;;;;;;6.18;100.00;101157.16;4966602;28;20042;-71
2021/12/12 12:08:40;;;;;;;0.95;0.80;;;;;;;6.24;100.00;101143.34;4967559;28;20039;-70